This is the latest recevied weather packets stored in our database for station/object DG4DAA-13. If no packets are shown the sender has not sent any weather packets the latest 10 day(s).
| Time | Temp. | Humidity | Pressure | Rain* | Wind** | Luminosity | Snow |
|---|---|---|---|---|---|---|---|
| 1777527515 | 7.78° C | 57% | 1032.8 hPa | 0 mm | - | - | - |
| 1777525750 | 6.11° C | 62% | 1032.6 hPa | 0 mm | - | - | - |
| 1777525715 | 6.11° C | 62% | 1032.6 hPa | 0 mm | - | - | - |
| 1777523915 | 5° C | 64% | 1032.5 hPa | 0 mm | - | - | - |
| 1777522194 | 5° C | 64% | 1032.2 hPa | 0 mm | - | - | - |
| 1777522115 | 5° C | 64% | 1032.2 hPa | 0 mm | - | - | - |
| 1777520315 | 5.56° C | 63% | 1032.1 hPa | 0 mm | - | - | - |
| 1777518515 | 5.56° C | 63% | 1032 hPa | 0 mm | - | - | - |
| 1777516715 | 6.11° C | 63% | 1031.9 hPa | 0 mm | - | - | - |
| 1777514916 | 6.67° C | 62% | 1031.9 hPa | 0 mm | - | - | - |
| 1777513116 | 6.67° C | 61% | 1031.8 hPa | 0 mm | - | - | - |
| 1777511316 | 7.22° C | 61% | 1031.5 hPa | 0 mm | - | - | - |
| 1777509516 | 7.22° C | 62% | 1031.4 hPa | 0 mm | - | - | - |
| 1777507787 | 7.78° C | 62% | 1031.4 hPa | 0 mm | - | - | - |
| 1777507716 | 7.78° C | 62% | 1031.4 hPa | 0 mm | - | - | - |
| 1777505916 | 7.78° C | 62% | 1031.5 hPa | 0 mm | - | - | - |
| 1777504116 | 8.33° C | 60% | 1031.4 hPa | 0 mm | - | - | - |
| 1777502316 | 8.89° C | 59% | 1031.2 hPa | 0 mm | - | - | - |
| 1777500516 | 9.44° C | 57% | 1031 hPa | 0 mm | - | - | - |
| 1777498716 | 10° C | 55% | 1031 hPa | 0 mm | - | - | - |
| 1777496917 | 10.56° C | 53% | 1030.8 hPa | 0 mm | - | - | - |
| 1777495116 | 11.11° C | 51% | 1030.7 hPa | 0 mm | - | - | - |
| 1777491516 | 12.22° C | 48% | 1030.2 hPa | 0 mm | - | - | - |
| 1777489716 | 13.33° C | 45% | 1029.6 hPa | 0 mm | - | - | - |
| 1777487916 | 14.44° C | 44% | 1029.3 hPa | 0 mm | - | - | - |
* Rain latest hour (hover to see other rain measurements)
** Current wind speed in m/s (hover to see current wind gust speed)